createdAt,value
2023-01-21T00:00:10.644Z,-8.30
2023-01-21T00:02:13.463Z,-8.32
2023-01-21T00:04:16.276Z,-8.32
2023-01-21T00:06:18.953Z,-8.35
2023-01-21T00:08:21.641Z,-8.39
2023-01-21T00:10:24.226Z,-8.36
2023-01-21T00:12:26.887Z,-8.40
2023-01-21T00:14:32.621Z,-8.39
2023-01-21T00:16:35.246Z,-8.41
2023-01-21T00:18:37.906Z,-8.42
2023-01-21T00:20:40.582Z,-8.44
2023-01-21T00:22:43.229Z,-8.42
2023-01-21T00:24:45.847Z,-8.40
2023-01-21T00:26:48.643Z,-8.43
2023-01-21T00:28:51.273Z,-8.41
2023-01-21T00:30:58.464Z,-8.41
2023-01-21T00:33:01.105Z,-8.46
2023-01-21T00:35:04.291Z,-8.49
2023-01-21T00:37:08.059Z,-8.47
2023-01-21T00:39:10.914Z,-8.53
2023-01-21T00:41:14.476Z,-8.54
2023-01-21T00:43:17.120Z,-8.52
2023-01-21T00:45:19.713Z,-8.53
2023-01-21T00:47:22.331Z,-8.56
2023-01-21T00:49:24.930Z,-8.60
2023-01-21T00:51:28.067Z,-8.58
2023-01-21T00:53:34.207Z,-8.56
2023-01-21T00:55:36.808Z,-8.65
2023-01-21T00:57:39.534Z,-8.61
2023-01-21T00:59:42.410Z,-8.58
2023-01-21T01:01:45.043Z,-8.53
2023-01-21T01:03:49.382Z,-8.53
2023-01-21T01:05:52.013Z,-8.63
2023-01-21T01:07:54.641Z,-8.62
2023-01-21T01:09:57.240Z,-8.64
2023-01-21T01:11:59.902Z,-8.59
2023-01-21T01:14:03.473Z,-8.59
2023-01-21T01:16:07.053Z,-8.56
2023-01-21T01:18:10.023Z,-8.62
2023-01-21T01:20:12.723Z,-8.54
2023-01-21T01:22:15.419Z,-8.59
2023-01-21T01:24:18.126Z,-8.59
2023-01-21T01:26:21.900Z,-8.60
2023-01-21T01:28:24.763Z,-8.59
2023-01-21T01:30:27.387Z,-8.58
2023-01-21T01:32:30.003Z,-8.60
2023-01-21T01:34:32.606Z,-8.58
2023-01-21T01:36:35.304Z,-8.62
2023-01-21T01:38:37.924Z,-8.61
2023-01-21T01:40:40.882Z,-8.60
2023-01-21T01:42:43.602Z,-8.64
2023-01-21T01:44:55.669Z,-8.68
2023-01-21T01:46:59.297Z,-8.70
2023-01-21T01:49:16.780Z,-8.78
2023-01-21T01:51:26.751Z,-8.81
2023-01-21T01:53:31.703Z,-8.81
2023-01-21T01:55:37.159Z,-8.81
2023-01-21T01:57:43.881Z,-8.89
2023-01-21T01:59:48.494Z,-8.86
2023-01-21T02:01:51.557Z,-8.90
2023-01-21T02:03:59.765Z,-8.88
2023-01-21T02:06:02.724Z,-8.89
2023-01-21T02:08:06.626Z,-8.91
2023-01-21T02:10:13.690Z,-8.90
2023-01-21T02:12:18.264Z,-8.93
2023-01-21T02:14:20.971Z,-8.91
2023-01-21T02:16:41.127Z,-8.94
2023-01-21T02:19:00.879Z,-8.90
2023-01-21T02:21:09.234Z,-8.95
2023-01-21T02:23:37.611Z,-8.97
2023-01-21T02:26:21.884Z,-8.97
2023-01-21T02:29:02.832Z,-8.97
2023-01-21T02:31:32.577Z,-9.03
2023-01-21T02:33:53.302Z,-9.01
2023-01-21T02:35:55.836Z,-9.06
2023-01-21T02:38:13.071Z,-9.08
2023-01-21T02:40:24.595Z,-9.11
2023-01-21T02:42:30.532Z,-9.08
2023-01-21T02:44:54.739Z,-9.07
2023-01-21T02:47:07.012Z,-9.08
2023-01-21T02:49:38.634Z,-9.08
2023-01-21T02:51:47.048Z,-9.06
2023-01-21T02:53:49.670Z,-9.07
2023-01-21T02:55:53.254Z,-9.17
2023-01-21T02:58:07.601Z,-9.15
2023-01-21T03:00:15.631Z,-9.21
2023-01-21T03:02:36.427Z,-9.19
2023-01-21T03:04:48.573Z,-9.21
2023-01-21T03:06:59.898Z,-9.27
2023-01-21T03:09:22.725Z,-9.35
2023-01-21T03:11:25.852Z,-9.32
2023-01-21T03:13:57.586Z,-9.33
2023-01-21T03:16:18.923Z,-9.29
2023-01-21T03:18:27.403Z,-9.25
2023-01-21T03:20:37.885Z,-9.24
2023-01-21T03:22:40.788Z,-9.25
2023-01-21T03:24:48.514Z,-9.26
2023-01-21T03:26:53.934Z,-9.28
2023-01-21T03:29:03.155Z,-9.28
2023-01-21T03:31:19.082Z,-9.27
2023-01-21T03:33:23.235Z,-9.26
2023-01-21T03:35:29.825Z,-9.29
2023-01-21T03:37:47.093Z,-9.29
2023-01-21T03:40:05.463Z,-9.32
2023-01-21T03:42:09.394Z,-9.33
2023-01-21T03:44:12.232Z,-9.37
2023-01-21T03:46:32.776Z,-9.31
2023-01-21T03:48:35.511Z,-9.29
2023-01-21T03:50:44.035Z,-9.32
2023-01-21T03:52:47.019Z,-9.30
2023-01-21T03:54:49.822Z,-9.33
2023-01-21T03:56:52.571Z,-9.36
2023-01-21T03:58:55.956Z,-9.28
2023-01-21T04:00:58.690Z,-9.26
2023-01-21T04:03:01.338Z,-9.36
2023-01-21T04:05:04.531Z,-9.28
2023-01-21T04:07:07.315Z,-9.25
2023-01-21T04:09:11.332Z,-9.25
2023-01-21T04:11:14.395Z,-9.27
2023-01-21T04:13:17.056Z,-9.26
2023-01-21T04:15:19.640Z,-9.31
2023-01-21T04:17:22.315Z,-9.29
2023-01-21T04:19:24.974Z,-9.33
2023-01-21T04:21:27.578Z,-9.34
2023-01-21T04:23:30.213Z,-9.34
2023-01-21T04:25:32.800Z,-9.33
2023-01-21T04:27:35.448Z,-9.35
2023-01-21T04:29:38.076Z,-9.37
2023-01-21T04:31:40.736Z,-9.36
2023-01-21T04:33:43.477Z,-9.34
2023-01-21T04:35:46.066Z,-9.36
2023-01-21T04:37:48.651Z,-9.40
2023-01-21T04:39:51.272Z,-9.39
2023-01-21T04:41:53.861Z,-9.38
2023-01-21T04:43:56.616Z,-9.37
2023-01-21T04:45:59.334Z,-9.42
2023-01-21T04:48:02.055Z,-9.33
2023-01-21T04:50:05.288Z,-9.29
2023-01-21T04:52:07.927Z,-9.29
2023-01-21T04:54:11.634Z,-9.29
2023-01-21T04:56:14.263Z,-9.30
2023-01-21T04:58:16.854Z,-9.34
2023-01-21T05:00:19.821Z,-9.33
2023-01-21T05:02:22.541Z,-9.26
2023-01-21T05:04:25.215Z,-9.31
2023-01-21T05:06:27.808Z,-9.28
2023-01-21T05:08:30.628Z,-9.20
2023-01-21T05:10:33.236Z,-9.19
2023-01-21T05:12:35.797Z,-9.10
2023-01-21T05:14:38.413Z,-9.10
2023-01-21T05:16:41.080Z,-9.04
2023-01-21T05:18:46.827Z,-9.04
2023-01-21T05:20:49.471Z,-9.04
2023-01-21T05:22:52.186Z,-9.02
2023-01-21T05:24:54.821Z,-9.00
2023-01-21T05:26:57.556Z,-8.96
2023-01-21T05:29:00.245Z,-8.97
2023-01-21T05:31:04.464Z,-8.94
2023-01-21T05:33:07.326Z,-8.96
2023-01-21T05:35:12.273Z,-8.89
2023-01-21T05:37:15.021Z,-8.87
2023-01-21T05:39:17.744Z,-8.84
2023-01-21T05:41:20.409Z,-8.79
2023-01-21T05:43:22.991Z,-8.72
2023-01-21T05:45:25.958Z,-8.74
2023-01-21T05:47:28.538Z,-8.66
2023-01-21T05:49:31.246Z,-8.64
2023-01-21T05:51:33.961Z,-8.65
2023-01-21T05:53:36.794Z,-8.65
2023-01-21T05:55:39.877Z,-8.63
2023-01-21T05:57:42.449Z,-8.57
2023-01-21T05:59:45.095Z,-8.59
2023-01-21T06:01:47.675Z,-8.53
2023-01-21T06:03:50.388Z,-8.48
2023-01-21T06:05:53.032Z,-8.42
2023-01-21T06:07:56.390Z,-8.40
2023-01-21T06:09:59.042Z,-8.35
2023-01-21T06:12:01.597Z,-8.33
2023-01-21T06:14:04.232Z,-8.33
2023-01-21T06:16:07.279Z,-8.24
2023-01-21T06:18:10.007Z,-8.19
2023-01-21T06:20:13.089Z,-8.11
2023-01-21T06:22:17.037Z,-8.08
2023-01-21T06:24:19.672Z,-8.01
2023-01-21T06:26:22.348Z,-7.96
2023-01-21T06:28:25.100Z,-7.94
2023-01-21T06:30:28.014Z,-7.88
2023-01-21T06:32:30.595Z,-7.80
2023-01-21T06:34:33.197Z,-7.65
2023-01-21T06:36:36.578Z,-7.62
2023-01-21T06:38:39.338Z,-7.65
2023-01-21T06:40:43.406Z,-7.69
2023-01-21T06:42:47.966Z,-7.59
2023-01-21T06:44:50.611Z,-7.59
2023-01-21T06:47:00.747Z,-7.54
2023-01-21T06:49:04.197Z,-7.48
2023-01-21T06:51:07.177Z,-7.37
2023-01-21T06:53:10.030Z,-7.25
2023-01-21T06:55:14.925Z,-7.26
2023-01-21T06:57:18.369Z,-7.35
2023-01-21T06:59:20.964Z,-7.34
2023-01-21T07:01:23.793Z,-7.35
2023-01-21T07:03:26.933Z,-7.40
2023-01-21T07:05:29.631Z,-7.32
2023-01-21T07:07:32.420Z,-7.38
2023-01-21T07:09:35.350Z,-7.48
2023-01-21T07:11:38.176Z,-7.41
2023-01-21T07:13:40.811Z,-7.35
2023-01-21T07:15:43.493Z,-7.31
2023-01-21T07:17:46.136Z,-7.28
2023-01-21T07:19:48.813Z,-7.25
2023-01-21T07:21:51.503Z,-7.29
2023-01-21T07:23:55.592Z,-7.12
2023-01-21T07:25:58.264Z,-7.11
2023-01-21T07:28:00.861Z,-6.99
2023-01-21T07:30:04.017Z,-6.90
2023-01-21T07:32:06.822Z,-6.90
2023-01-21T07:34:09.494Z,-6.85
2023-01-21T07:36:12.205Z,-6.83
2023-01-21T07:38:14.806Z,-6.81
2023-01-21T07:40:17.657Z,-6.76
2023-01-21T07:42:20.320Z,-6.65
2023-01-21T07:44:23.004Z,-6.60
2023-01-21T07:46:27.077Z,-6.56
2023-01-21T07:48:29.787Z,-6.51
2023-01-21T07:50:32.385Z,-6.39
2023-01-21T07:52:35.313Z,-6.31
2023-01-21T07:54:37.934Z,-6.34
2023-01-21T07:56:40.775Z,-6.41
2023-01-21T07:58:43.490Z,-6.37
2023-01-21T08:00:46.095Z,-6.35
2023-01-21T08:02:54.147Z,-6.38
2023-01-21T08:04:56.797Z,-6.39
2023-01-21T08:07:00.103Z,-6.44
2023-01-21T08:09:02.709Z,-6.29
2023-01-21T08:11:05.515Z,-6.18
2023-01-21T08:13:08.229Z,-6.13
2023-01-21T08:15:12.082Z,-6.13
2023-01-21T08:17:14.949Z,-6.15
2023-01-21T08:19:17.539Z,-6.18
2023-01-21T08:21:21.122Z,-6.16
2023-01-21T08:23:24.263Z,-6.10
2023-01-21T08:25:27.379Z,-6.13
2023-01-21T08:27:30.613Z,-6.10
2023-01-21T08:29:33.279Z,-6.01
2023-01-21T08:31:36.212Z,-6.00
2023-01-21T08:33:39.332Z,-6.04
2023-01-21T08:35:42.283Z,-6.09
2023-01-21T08:37:44.907Z,-6.05
2023-01-21T08:39:47.487Z,-6.02
2023-01-21T08:41:50.189Z,-5.99
2023-01-21T08:43:52.852Z,-5.90
2023-01-21T08:46:01.660Z,-5.93
2023-01-21T08:48:04.650Z,-5.91
2023-01-21T08:50:08.069Z,-5.79
2023-01-21T08:52:11.137Z,-5.69
2023-01-21T08:54:13.941Z,-5.85
2023-01-21T08:56:17.000Z,-5.84
2023-01-21T08:58:19.617Z,-5.72
2023-01-21T09:00:23.651Z,-5.68
2023-01-21T09:02:26.736Z,-5.69
2023-01-21T09:04:29.529Z,-5.69
2023-01-21T09:06:32.399Z,-5.65
2023-01-21T09:08:36.841Z,-5.67
2023-01-21T09:10:58.028Z,-5.65
2023-01-21T09:13:07.778Z,-5.65
2023-01-21T09:15:10.732Z,-5.66
2023-01-21T09:17:13.335Z,-5.57
2023-01-21T09:19:16.747Z,-5.60
2023-01-21T09:21:19.873Z,-5.59
2023-01-21T09:23:25.407Z,-5.56
2023-01-21T09:25:28.310Z,-5.49
2023-01-21T09:27:31.271Z,-5.48
2023-01-21T09:29:34.623Z,-5.47
2023-01-21T09:31:37.752Z,-5.47
2023-01-21T09:33:44.606Z,-5.37
2023-01-21T09:35:56.667Z,-5.33
2023-01-21T09:37:59.282Z,-5.27
2023-01-21T09:40:02.283Z,-5.25
2023-01-21T09:42:06.236Z,-5.29
2023-01-21T09:44:45.055Z,-5.28
2023-01-21T09:47:06.479Z,-5.26
2023-01-21T09:49:17.360Z,-5.12
2023-01-21T09:51:39.363Z,-5.06
2023-01-21T09:53:55.283Z,-5.04
2023-01-21T09:56:02.349Z,-5.02
2023-01-21T09:58:37.606Z,-5.08
2023-01-21T10:00:46.431Z,-5.15
2023-01-21T10:03:16.536Z,-5.14
2023-01-21T10:05:25.051Z,-5.07
2023-01-21T10:07:39.159Z,-5.00
2023-01-21T10:09:47.929Z,-5.03
2023-01-21T10:12:05.403Z,-5.06
2023-01-21T10:14:40.614Z,-5.06
2023-01-21T10:17:01.290Z,-5.14
2023-01-21T10:19:05.855Z,-5.23
2023-01-21T10:21:25.066Z,-5.33
2023-01-21T10:23:39.751Z,-5.41
2023-01-21T10:25:50.624Z,-5.46
2023-01-21T10:27:54.793Z,-5.52
2023-01-21T10:30:22.886Z,-5.57
2023-01-21T10:32:27.988Z,-5.57
2023-01-21T10:34:33.037Z,-5.59
2023-01-21T10:36:55.113Z,-5.72
2023-01-21T10:39:22.552Z,-5.72
2023-01-21T10:41:33.285Z,-5.73
2023-01-21T10:44:03.255Z,-5.75
2023-01-21T10:46:23.962Z,-5.75
2023-01-21T10:48:29.351Z,-5.71
2023-01-21T10:50:41.113Z,-5.71
2023-01-21T10:53:06.950Z,-5.79
2023-01-21T10:55:35.631Z,-5.76
2023-01-21T10:57:59.226Z,-5.75
2023-01-21T11:00:04.441Z,-5.75
2023-01-21T11:02:08.204Z,-5.72
2023-01-21T11:04:16.874Z,-5.73
2023-01-21T11:06:21.756Z,-5.75
2023-01-21T11:08:27.455Z,-5.76
2023-01-21T11:10:30.653Z,-5.72
2023-01-21T11:12:33.355Z,-5.73
2023-01-21T11:14:35.950Z,-5.75
2023-01-21T11:16:49.963Z,-5.74
2023-01-21T11:18:52.577Z,-5.69
2023-01-21T11:21:01.101Z,-5.67
2023-01-21T11:23:23.219Z,-5.65
2023-01-21T11:25:28.740Z,-5.61
2023-01-21T11:27:40.131Z,-5.62
2023-01-21T11:29:42.894Z,-5.65
2023-01-21T11:31:49.023Z,-5.60
2023-01-21T11:33:52.910Z,-5.68
2023-01-21T11:35:56.701Z,-5.75
2023-01-21T11:37:59.369Z,-5.74
2023-01-21T11:40:14.431Z,-5.76
2023-01-21T11:42:19.370Z,-5.70
2023-01-21T11:44:23.240Z,-5.67
2023-01-21T11:46:30.105Z,-5.63
2023-01-21T11:48:32.791Z,-5.58
2023-01-21T11:50:40.187Z,-5.50
2023-01-21T11:52:42.897Z,-5.43
2023-01-21T11:54:46.741Z,-5.45
2023-01-21T11:57:02.591Z,-5.49
2023-01-21T11:59:42.030Z,-5.56
2023-01-21T12:01:53.367Z,-5.57
2023-01-21T12:04:01.160Z,-5.55
2023-01-21T12:06:05.371Z,-5.59
2023-01-21T12:08:08.311Z,-5.60
2023-01-21T12:10:13.610Z,-5.67
2023-01-21T12:12:31.287Z,-5.79
2023-01-21T12:14:59.258Z,-5.89
2023-01-21T12:17:16.104Z,-5.98
2023-01-21T12:19:42.732Z,-6.03
2023-01-21T12:22:03.269Z,-6.07
2023-01-21T12:24:08.339Z,-6.08
2023-01-21T12:26:38.085Z,-6.19
2023-01-21T12:28:49.216Z,-6.14
2023-01-21T12:31:08.057Z,-6.17
2023-01-21T12:33:30.867Z,-6.16
2023-01-21T12:35:43.522Z,-6.21
2023-01-21T12:38:15.239Z,-6.25
2023-01-21T12:40:27.612Z,-6.37
2023-01-21T12:42:37.826Z,-6.36
2023-01-21T12:44:44.823Z,-6.43
2023-01-21T12:46:51.331Z,-6.46
2023-01-21T12:49:05.100Z,-6.48
2023-01-21T12:51:13.785Z,-6.52
2023-01-21T12:53:35.804Z,-6.52
2023-01-21T12:55:57.265Z,-6.56
2023-01-21T12:58:09.269Z,-6.67
2023-01-21T13:00:22.177Z,-6.64
2023-01-21T13:02:43.631Z,-6.60
2023-01-21T13:04:55.745Z,-6.54
2023-01-21T13:06:58.149Z,-6.62
2023-01-21T13:09:05.028Z,-6.74
2023-01-21T13:11:23.931Z,-6.79
2023-01-21T13:13:35.664Z,-6.90
2023-01-21T13:15:41.615Z,-7.01
2023-01-21T13:17:49.834Z,-6.98
2023-01-21T13:19:52.560Z,-7.01
2023-01-21T13:22:16.214Z,-6.95
2023-01-21T13:24:46.736Z,-6.99
2023-01-21T13:27:15.656Z,-7.03
2023-01-21T13:29:39.972Z,-6.99
2023-01-21T13:32:13.411Z,-6.97
2023-01-21T13:34:34.222Z,-7.03
2023-01-21T13:37:02.633Z,-7.02
2023-01-21T13:39:21.924Z,-7.09
2023-01-21T13:41:51.114Z,-7.17
2023-01-21T13:44:13.782Z,-7.15
2023-01-21T13:46:22.359Z,-7.15
2023-01-21T13:48:52.289Z,-7.07
2023-01-21T13:51:09.674Z,-7.12
2023-01-21T13:53:30.548Z,-7.15
2023-01-21T13:55:55.799Z,-7.18
2023-01-21T13:58:04.837Z,-7.22
2023-01-21T14:00:16.402Z,-7.25
2023-01-21T14:02:31.996Z,-7.22
2023-01-21T14:04:44.395Z,-7.20
2023-01-21T14:07:22.544Z,-7.19
2023-01-21T14:09:38.438Z,-7.26
2023-01-21T14:11:53.775Z,-7.31
2023-01-21T14:14:15.241Z,-7.33
2023-01-21T14:16:46.406Z,-7.38
2023-01-21T14:18:52.161Z,-7.37
2023-01-21T14:21:15.570Z,-7.39
2023-01-21T14:23:50.211Z,-7.39
2023-01-21T14:26:14.517Z,-7.41
2023-01-21T14:28:47.440Z,-7.44
2023-01-21T14:30:59.562Z,-7.49
2023-01-21T14:33:11.169Z,-7.48
2023-01-21T14:35:33.159Z,-7.52
2023-01-21T14:37:44.662Z,-7.52
2023-01-21T14:40:07.504Z,-7.57
2023-01-21T14:42:12.914Z,-7.62
2023-01-21T14:44:39.341Z,-7.68
2023-01-21T14:46:41.940Z,-7.65
2023-01-21T14:49:00.434Z,-7.68
2023-01-21T14:51:06.078Z,-7.67
2023-01-21T14:53:48.365Z,-7.72
2023-01-21T14:56:19.828Z,-7.80
2023-01-21T14:58:26.742Z,-7.76
2023-01-21T15:00:35.363Z,-7.84
2023-01-21T15:02:44.990Z,-7.87
2023-01-21T15:05:00.574Z,-7.82
2023-01-21T15:07:09.782Z,-7.87
2023-01-21T15:09:24.018Z,-7.89
2023-01-21T15:11:32.185Z,-7.85
2023-01-21T15:13:35.036Z,-7.84
2023-01-21T15:16:01.505Z,-7.87
2023-01-21T15:18:26.456Z,-7.90
2023-01-21T15:20:39.846Z,-7.93
2023-01-21T15:22:46.850Z,-7.91
2023-01-21T15:25:12.588Z,-7.92
2023-01-21T15:27:33.910Z,-7.93
2023-01-21T15:29:38.778Z,-8.00
2023-01-21T15:31:44.852Z,-7.99
2023-01-21T15:34:07.694Z,-8.02
2023-01-21T15:36:38.066Z,-8.01
2023-01-21T15:38:41.682Z,-8.04
2023-01-21T15:40:58.179Z,-8.05
2023-01-21T15:43:02.987Z,-8.06
2023-01-21T15:45:13.077Z,-8.10
2023-01-21T15:47:53.086Z,-8.11
2023-01-21T15:50:13.827Z,-8.12
2023-01-21T15:52:25.349Z,-8.19
2023-01-21T15:54:41.540Z,-8.21
2023-01-21T15:56:45.235Z,-8.19
2023-01-21T15:59:24.524Z,-8.26
2023-01-21T16:01:33.784Z,-8.26
2023-01-21T16:03:45.715Z,-8.29
2023-01-21T16:05:53.939Z,-8.33
2023-01-21T16:08:02.062Z,-8.33
2023-01-21T16:10:11.060Z,-8.36
2023-01-21T16:12:30.079Z,-8.35
2023-01-21T16:14:56.126Z,-8.33
2023-01-21T16:17:13.655Z,-8.30
2023-01-21T16:19:21.421Z,-8.34
2023-01-21T16:21:32.435Z,-8.42
2023-01-21T16:23:40.332Z,-8.40
2023-01-21T16:25:48.154Z,-8.42
2023-01-21T16:27:54.244Z,-8.37
2023-01-21T16:30:06.631Z,-8.39
2023-01-21T16:32:17.456Z,-8.43
2023-01-21T16:34:32.175Z,-8.45
2023-01-21T16:36:38.691Z,-8.43
2023-01-21T16:38:43.477Z,-8.46
2023-01-21T16:40:48.955Z,-8.42
2023-01-21T16:43:12.211Z,-8.39
2023-01-21T16:45:26.158Z,-8.46
2023-01-21T16:47:36.346Z,-8.51
2023-01-21T16:49:43.346Z,-8.58
2023-01-21T16:51:57.638Z,-8.56
2023-01-21T16:54:28.266Z,-8.62
2023-01-21T16:56:30.945Z,-8.64
2023-01-21T16:58:35.029Z,-8.66
2023-01-21T17:00:37.619Z,-8.74
2023-01-21T17:02:40.271Z,-8.74
2023-01-21T17:04:43.040Z,-8.74
2023-01-21T17:06:46.604Z,-8.68
2023-01-21T17:08:54.553Z,-8.65
2023-01-21T17:11:04.023Z,-8.73
2023-01-21T17:13:14.248Z,-8.72
2023-01-21T17:15:41.993Z,-8.72
2023-01-21T17:17:45.396Z,-8.74
2023-01-21T17:19:51.097Z,-8.70
2023-01-21T17:21:58.399Z,-8.68
2023-01-21T17:24:07.557Z,-8.72
2023-01-21T17:26:33.589Z,-8.70
2023-01-21T17:28:45.116Z,-8.76
2023-01-21T17:30:47.930Z,-8.80
2023-01-21T17:32:58.841Z,-8.81
2023-01-21T17:35:14.678Z,-8.86
2023-01-21T17:37:41.940Z,-8.90
2023-01-21T17:39:48.361Z,-8.91
2023-01-21T17:41:51.059Z,-8.89
2023-01-21T17:43:55.976Z,-8.91
2023-01-21T17:45:58.724Z,-8.95
2023-01-21T17:48:10.117Z,-8.90
2023-01-21T17:50:25.924Z,-8.90
2023-01-21T17:52:29.246Z,-8.92
2023-01-21T17:54:31.912Z,-8.93
2023-01-21T17:56:53.428Z,-8.92
2023-01-21T17:58:56.362Z,-8.98
2023-01-21T18:01:02.412Z,-9.00
2023-01-21T18:03:05.552Z,-9.01
2023-01-21T18:05:08.474Z,-9.02
2023-01-21T18:07:32.623Z,-9.00
2023-01-21T18:09:35.526Z,-9.00
2023-01-21T18:11:38.132Z,-9.02
2023-01-21T18:13:40.765Z,-9.04
2023-01-21T18:15:44.439Z,-9.06
2023-01-21T18:17:51.290Z,-9.07
2023-01-21T18:19:53.938Z,-9.03
2023-01-21T18:21:57.139Z,-9.00
2023-01-21T18:23:59.890Z,-8.98
2023-01-21T18:26:03.700Z,-8.97
2023-01-21T18:28:19.804Z,-9.01
2023-01-21T18:30:28.386Z,-9.03
2023-01-21T18:32:31.073Z,-9.05
2023-01-21T18:34:33.708Z,-9.03
2023-01-21T18:36:36.836Z,-9.03
2023-01-21T18:38:39.929Z,-9.03
2023-01-21T18:40:42.701Z,-9.01
2023-01-21T18:42:46.830Z,-9.03
2023-01-21T18:44:49.459Z,-9.04
2023-01-21T18:46:52.256Z,-9.04
2023-01-21T18:48:54.963Z,-9.06
2023-01-21T18:50:57.758Z,-9.09
2023-01-21T18:53:00.478Z,-9.13
2023-01-21T18:55:03.153Z,-9.13
2023-01-21T18:57:12.356Z,-9.17
2023-01-21T18:59:17.401Z,-9.15
2023-01-21T19:01:23.650Z,-9.17
2023-01-21T19:03:26.896Z,-9.17
2023-01-21T19:05:34.602Z,-9.20
2023-01-21T19:07:37.336Z,-9.21
2023-01-21T19:09:46.165Z,-9.20
2023-01-21T19:11:49.519Z,-9.22
2023-01-21T19:13:52.337Z,-9.25
2023-01-21T19:15:55.020Z,-9.23
2023-01-21T19:17:57.986Z,-9.23
2023-01-21T19:20:01.065Z,-9.22
2023-01-21T19:22:03.839Z,-9.21
2023-01-21T19:24:09.312Z,-9.22
2023-01-21T19:26:14.520Z,-9.23
2023-01-21T19:28:17.277Z,-9.25
2023-01-21T19:30:29.084Z,-9.19
2023-01-21T19:32:31.826Z,-9.13
2023-01-21T19:34:34.605Z,-9.12
2023-01-21T19:36:38.252Z,-9.13
2023-01-21T19:38:43.257Z,-9.15
2023-01-21T19:40:47.541Z,-9.16
2023-01-21T19:42:50.484Z,-9.17
2023-01-21T19:44:53.186Z,-9.16
2023-01-21T19:46:59.542Z,-9.09
2023-01-21T19:49:11.617Z,-9.04
2023-01-21T19:51:14.252Z,-9.06
2023-01-21T19:53:18.462Z,-9.02
2023-01-21T19:55:23.661Z,-9.02
2023-01-21T19:57:26.332Z,-8.99
2023-01-21T19:59:29.045Z,-8.97
2023-01-21T20:01:31.971Z,-8.98
2023-01-21T20:03:34.630Z,-8.97
2023-01-21T20:05:37.421Z,-8.96
2023-01-21T20:07:40.084Z,-8.94
2023-01-21T20:09:42.985Z,-8.97
2023-01-21T20:11:45.603Z,-8.99
2023-01-21T20:13:48.270Z,-8.98
2023-01-21T20:15:52.737Z,-9.01
2023-01-21T20:17:57.792Z,-8.97
2023-01-21T20:20:00.457Z,-9.05
2023-01-21T20:22:03.212Z,-8.97
2023-01-21T20:24:07.387Z,-8.96
2023-01-21T20:26:16.977Z,-8.94
2023-01-21T20:28:25.724Z,-8.97
2023-01-21T20:30:32.039Z,-9.01
2023-01-21T20:32:35.192Z,-9.03
2023-01-21T20:34:39.026Z,-9.03
2023-01-21T20:36:41.963Z,-9.05
2023-01-21T20:38:45.169Z,-9.04
2023-01-21T20:40:48.621Z,-9.02
2023-01-21T20:42:53.033Z,-9.01
2023-01-21T20:44:56.696Z,-8.99
2023-01-21T20:47:01.609Z,-9.00
2023-01-21T20:49:04.353Z,-9.02
2023-01-21T20:51:07.843Z,-9.01
2023-01-21T20:53:11.831Z,-9.02
2023-01-21T20:55:16.490Z,-9.00
2023-01-21T20:57:20.508Z,-9.05
2023-01-21T20:59:23.530Z,-8.99
2023-01-21T21:01:27.769Z,-8.99
2023-01-21T21:03:30.823Z,-8.97
2023-01-21T21:05:33.731Z,-8.96
2023-01-21T21:07:36.892Z,-8.98
2023-01-21T21:09:40.019Z,-9.00
2023-01-21T21:11:42.693Z,-8.99
2023-01-21T21:13:48.518Z,-9.01
2023-01-21T21:15:52.011Z,-9.04
2023-01-21T21:17:55.075Z,-9.04
2023-01-21T21:19:57.683Z,-9.01
2023-01-21T21:22:00.271Z,-9.01
2023-01-21T21:24:06.646Z,-9.04
2023-01-21T21:26:23.232Z,-8.97
2023-01-21T21:28:25.950Z,-9.00
2023-01-21T21:30:31.315Z,-8.94
2023-01-21T21:32:34.349Z,-8.95
2023-01-21T21:34:37.104Z,-8.94
2023-01-21T21:36:42.479Z,-8.93
2023-01-21T21:38:46.254Z,-8.94
2023-01-21T21:40:53.315Z,-8.97
2023-01-21T21:43:15.714Z,-8.91
2023-01-21T21:45:18.758Z,-8.89
2023-01-21T21:47:39.994Z,-8.89
2023-01-21T21:49:42.611Z,-8.84
2023-01-21T21:51:46.013Z,-8.89
2023-01-21T21:53:49.033Z,-8.85
2023-01-21T21:55:51.752Z,-8.83
2023-01-21T21:57:54.346Z,-8.78
2023-01-21T21:59:56.907Z,-8.77
2023-01-21T22:02:00.961Z,-8.82
2023-01-21T22:04:04.645Z,-8.78
2023-01-21T22:06:07.824Z,-8.76
2023-01-21T22:08:11.764Z,-8.73
2023-01-21T22:10:14.453Z,-8.71
2023-01-21T22:12:17.132Z,-8.74
2023-01-21T22:14:19.757Z,-8.73
2023-01-21T22:16:25.490Z,-8.74
2023-01-21T22:18:30.129Z,-8.70
2023-01-21T22:20:32.730Z,-8.68
2023-01-21T22:22:35.440Z,-8.63
2023-01-21T22:24:38.076Z,-8.61
2023-01-21T22:26:40.788Z,-8.62
2023-01-21T22:28:44.208Z,-8.60
2023-01-21T22:30:46.859Z,-8.61
2023-01-21T22:32:49.549Z,-8.57
2023-01-21T22:34:52.267Z,-8.57
2023-01-21T22:36:54.897Z,-8.62
2023-01-21T22:38:58.067Z,-8.64
2023-01-21T22:41:01.537Z,-8.68
2023-01-21T22:43:04.403Z,-8.70
2023-01-21T22:45:07.736Z,-8.75
2023-01-21T22:47:10.970Z,-8.77
2023-01-21T22:49:13.935Z,-8.82
2023-01-21T22:51:18.879Z,-8.85
2023-01-21T22:53:22.733Z,-8.86
2023-01-21T22:55:25.461Z,-8.91
2023-01-21T22:57:28.132Z,-8.95
2023-01-21T22:59:32.087Z,-8.96
2023-01-21T23:01:36.683Z,-9.01
2023-01-21T23:03:39.405Z,-9.02
2023-01-21T23:05:42.011Z,-9.02
2023-01-21T23:07:44.667Z,-9.05
2023-01-21T23:09:47.280Z,-9.12
2023-01-21T23:11:52.726Z,-9.15
2023-01-21T23:13:55.504Z,-9.24
2023-01-21T23:15:58.256Z,-9.23
2023-01-21T23:18:01.026Z,-9.26
2023-01-21T23:20:04.563Z,-9.28
2023-01-21T23:22:08.575Z,-9.29
2023-01-21T23:24:11.267Z,-9.31
2023-01-21T23:26:14.511Z,-9.34
2023-01-21T23:28:17.916Z,-9.30
2023-01-21T23:30:20.623Z,-9.31
2023-01-21T23:32:23.309Z,-9.30
2023-01-21T23:34:25.894Z,-9.32
2023-01-21T23:36:28.640Z,-9.38
2023-01-21T23:38:31.387Z,-9.37
2023-01-21T23:40:34.047Z,-9.33
2023-01-21T23:42:36.678Z,-9.38
2023-01-21T23:44:39.356Z,-9.35
2023-01-21T23:46:43.790Z,-9.36
2023-01-21T23:48:46.579Z,-9.26
2023-01-21T23:50:49.454Z,-9.26
2023-01-21T23:52:52.169Z,-9.26
2023-01-21T23:54:55.180Z,-9.23
2023-01-21T23:56:57.827Z,-9.22
2023-01-21T23:59:00.491Z,-9.18
